sensor_id;sensor_type;location;lat;lon;timestamp;temperature;humidity
23130;DHT22;11734;51.046;13.778;2023-08-07T00:02:25;14.60;99.90
23130;DHT22;11734;51.046;13.778;2023-08-07T00:04:52;14.60;99.90
23130;DHT22;11734;51.046;13.778;2023-08-07T00:07:19;14.60;99.90
23130;DHT22;11734;51.046;13.778;2023-08-07T00:09:46;14.60;99.90
23130;DHT22;11734;51.046;13.778;2023-08-07T00:12:13;14.60;99.90
23130;DHT22;11734;51.046;13.778;2023-08-07T00:14:40;14.60;99.90
23130;DHT22;11734;51.046;13.778;2023-08-07T00:17:06;14.60;99.90
23130;DHT22;11734;51.046;13.778;2023-08-07T00:19:35;14.60;99.90
23130;DHT22;11734;51.046;13.778;2023-08-07T00:22:02;14.70;99.90
23130;DHT22;11734;51.046;13.778;2023-08-07T00:24:28;14.70;99.90
23130;DHT22;11734;51.046;13.778;2023-08-07T00:26:55;14.70;99.90
23130;DHT22;11734;51.046;13.778;2023-08-07T00:29:23;14.70;99.90
23130;DHT22;11734;51.046;13.778;2023-08-07T00:31:50;14.70;99.90
23130;DHT22;11734;51.046;13.778;2023-08-07T00:34:16;14.70;99.90
23130;DHT22;11734;51.046;13.778;2023-08-07T00:36:43;14.70;99.90
23130;DHT22;11734;51.046;13.778;2023-08-07T00:39:10;14.70;99.90
23130;DHT22;11734;51.046;13.778;2023-08-07T00:41:39;14.70;99.90
23130;DHT22;11734;51.046;13.778;2023-08-07T00:44:05;14.70;99.90
23130;DHT22;11734;51.046;13.778;2023-08-07T00:46:33;14.80;99.90
23130;DHT22;11734;51.046;13.778;2023-08-07T00:49:01;14.80;99.90
23130;DHT22;11734;51.046;13.778;2023-08-07T00:51:29;14.90;99.90
23130;DHT22;11734;51.046;13.778;2023-08-07T00:53:56;14.90;99.90
23130;DHT22;11734;51.046;13.778;2023-08-07T00:56:23;14.90;99.90
23130;DHT22;11734;51.046;13.778;2023-08-07T00:58:50;14.90;99.90
23130;DHT22;11734;51.046;13.778;2023-08-07T01:01:17;14.90;99.90
23130;DHT22;11734;51.046;13.778;2023-08-07T01:03:45;14.90;99.90
23130;DHT22;11734;51.046;13.778;2023-08-07T01:06:13;15.00;99.90
23130;DHT22;11734;51.046;13.778;2023-08-07T01:08:40;15.00;99.90
23130;DHT22;11734;51.046;13.778;2023-08-07T01:11:36;15.00;99.90
23130;DHT22;11734;51.046;13.778;2023-08-07T01:14:58;15.00;99.90
23130;DHT22;11734;51.046;13.778;2023-08-07T01:17:16;15.00;99.90
23130;DHT22;11734;51.046;13.778;2023-08-07T01:19:44;15.00;99.90
23130;DHT22;11734;51.046;13.778;2023-08-07T01:22:12;15.00;99.90
23130;DHT22;11734;51.046;13.778;2023-08-07T01:24:42;15.00;99.90
23130;DHT22;11734;51.046;13.778;2023-08-07T01:33:12;14.90;99.90
23130;DHT22;11734;51.046;13.778;2023-08-07T01:35:49;14.80;99.90
23130;DHT22;11734;51.046;13.778;2023-08-07T01:38:16;14.80;99.90
23130;DHT22;11734;51.046;13.778;2023-08-07T01:40:46;14.80;99.90
23130;DHT22;11734;51.046;13.778;2023-08-07T01:43:14;14.70;99.90
23130;DHT22;11734;51.046;13.778;2023-08-07T01:45:41;14.80;99.90
23130;DHT22;11734;51.046;13.778;2023-08-07T01:48:08;14.80;99.90
23130;DHT22;11734;51.046;13.778;2023-08-07T01:50:35;14.70;99.90
23130;DHT22;11734;51.046;13.778;2023-08-07T01:53:02;14.70;99.90
23130;DHT22;11734;51.046;13.778;2023-08-07T01:55:29;14.70;99.90
23130;DHT22;11734;51.046;13.778;2023-08-07T01:57:57;14.70;99.90
23130;DHT22;11734;51.046;13.778;2023-08-07T02:00:24;14.70;99.90
23130;DHT22;11734;51.046;13.778;2023-08-07T02:02:51;14.70;99.90
23130;DHT22;11734;51.046;13.778;2023-08-07T02:05:18;14.70;99.90
23130;DHT22;11734;51.046;13.778;2023-08-07T02:07:44;14.70;99.90
23130;DHT22;11734;51.046;13.778;2023-08-07T02:10:11;14.70;99.90
23130;DHT22;11734;51.046;13.778;2023-08-07T02:12:38;14.70;99.90
23130;DHT22;11734;51.046;13.778;2023-08-07T02:15:06;14.80;99.90
23130;DHT22;11734;51.046;13.778;2023-08-07T02:17:33;14.80;99.90
23130;DHT22;11734;51.046;13.778;2023-08-07T02:20:00;14.80;99.90
23130;DHT22;11734;51.046;13.778;2023-08-07T02:22:27;14.80;99.90
23130;DHT22;11734;51.046;13.778;2023-08-07T02:24:54;14.80;99.90
23130;DHT22;11734;51.046;13.778;2023-08-07T02:27:21;14.80;99.90
23130;DHT22;11734;51.046;13.778;2023-08-07T02:29:48;14.80;99.90
23130;DHT22;11734;51.046;13.778;2023-08-07T02:32:15;14.80;99.90
23130;DHT22;11734;51.046;13.778;2023-08-07T02:34:42;14.90;99.90
23130;DHT22;11734;51.046;13.778;2023-08-07T02:37:09;14.90;99.90
23130;DHT22;11734;51.046;13.778;2023-08-07T02:39:36;14.90;99.90
23130;DHT22;11734;51.046;13.778;2023-08-07T02:42:03;14.90;99.90
23130;DHT22;11734;51.046;13.778;2023-08-07T02:44:30;14.90;99.90
23130;DHT22;11734;51.046;13.778;2023-08-07T02:46:57;14.90;99.90
23130;DHT22;11734;51.046;13.778;2023-08-07T02:49:24;14.90;99.90
23130;DHT22;11734;51.046;13.778;2023-08-07T02:51:52;14.90;99.90
23130;DHT22;11734;51.046;13.778;2023-08-07T02:54:19;15.00;99.90
23130;DHT22;11734;51.046;13.778;2023-08-07T02:56:45;15.00;99.90
23130;DHT22;11734;51.046;13.778;2023-08-07T02:59:12;15.00;99.90
23130;DHT22;11734;51.046;13.778;2023-08-07T03:01:39;15.00;99.90
23130;DHT22;11734;51.046;13.778;2023-08-07T03:04:06;14.90;99.90
23130;DHT22;11734;51.046;13.778;2023-08-07T03:06:33;15.00;99.90
23130;DHT22;11734;51.046;13.778;2023-08-07T03:09:00;15.00;99.90
23130;DHT22;11734;51.046;13.778;2023-08-07T03:11:27;14.80;99.90
23130;DHT22;11734;51.046;13.778;2023-08-07T03:13:54;14.80;99.90
23130;DHT22;11734;51.046;13.778;2023-08-07T03:16:21;14.70;99.90
23130;DHT22;11734;51.046;13.778;2023-08-07T03:18:48;14.70;99.90
23130;DHT22;11734;51.046;13.778;2023-08-07T03:21:15;14.70;99.90
23130;DHT22;11734;51.046;13.778;2023-08-07T03:23:42;14.60;99.90
23130;DHT22;11734;51.046;13.778;2023-08-07T03:26:11;14.50;99.90
23130;DHT22;11734;51.046;13.778;2023-08-07T03:28:45;14.30;99.90
23130;DHT22;11734;51.046;13.778;2023-08-07T03:31:16;14.20;99.90
23130;DHT22;11734;51.046;13.778;2023-08-07T03:33:43;14.10;99.90
23130;DHT22;11734;51.046;13.778;2023-08-07T03:36:12;14.00;99.90
23130;DHT22;11734;51.046;13.778;2023-08-07T03:38:40;14.00;99.90
23130;DHT22;11734;51.046;13.778;2023-08-07T03:41:07;13.90;99.90
23130;DHT22;11734;51.046;13.778;2023-08-07T03:43:36;13.90;99.90
23130;DHT22;11734;51.046;13.778;2023-08-07T03:46:03;13.90;99.90
23130;DHT22;11734;51.046;13.778;2023-08-07T03:48:30;13.90;99.90
23130;DHT22;11734;51.046;13.778;2023-08-07T03:51:07;13.80;99.90
23130;DHT22;11734;51.046;13.778;2023-08-07T03:53:45;13.80;99.90
23130;DHT22;11734;51.046;13.778;2023-08-07T03:56:13;13.80;99.90
23130;DHT22;11734;51.046;13.778;2023-08-07T03:58:40;13.90;99.90
23130;DHT22;11734;51.046;13.778;2023-08-07T04:01:08;13.90;99.90
23130;DHT22;11734;51.046;13.778;2023-08-07T04:03:35;13.80;99.90
23130;DHT22;11734;51.046;13.778;2023-08-07T04:06:02;13.80;99.90
23130;DHT22;11734;51.046;13.778;2023-08-07T04:08:32;13.90;99.90
23130;DHT22;11734;51.046;13.778;2023-08-07T04:11:04;13.90;99.90
23130;DHT22;11734;51.046;13.778;2023-08-07T04:13:33;13.90;99.90
23130;DHT22;11734;51.046;13.778;2023-08-07T04:16:00;13.90;99.90
23130;DHT22;11734;51.046;13.778;2023-08-07T04:18:29;14.00;99.90
23130;DHT22;11734;51.046;13.778;2023-08-07T04:20:56;14.10;99.90
23130;DHT22;11734;51.046;13.778;2023-08-07T04:23:24;14.10;99.90
23130;DHT22;11734;51.046;13.778;2023-08-07T04:25:52;14.10;99.90
23130;DHT22;11734;51.046;13.778;2023-08-07T04:28:19;14.10;99.90
23130;DHT22;11734;51.046;13.778;2023-08-07T04:30:50;14.20;99.90
23130;DHT22;11734;51.046;13.778;2023-08-07T04:33:21;14.20;99.90
23130;DHT22;11734;51.046;13.778;2023-08-07T04:35:47;14.30;99.90
23130;DHT22;11734;51.046;13.778;2023-08-07T04:38:16;14.30;99.90
23130;DHT22;11734;51.046;13.778;2023-08-07T04:40:47;14.30;99.90
23130;DHT22;11734;51.046;13.778;2023-08-07T04:43:15;14.40;99.90
23130;DHT22;11734;51.046;13.778;2023-08-07T04:45:42;14.40;99.90
23130;DHT22;11734;51.046;13.778;2023-08-07T04:48:12;14.50;99.90
23130;DHT22;11734;51.046;13.778;2023-08-07T04:50:39;14.50;99.90
23130;DHT22;11734;51.046;13.778;2023-08-07T04:53:06;14.60;99.90
23130;DHT22;11734;51.046;13.778;2023-08-07T04:55:33;14.60;99.90
23130;DHT22;11734;51.046;13.778;2023-08-07T04:58:00;14.60;99.90
23130;DHT22;11734;51.046;13.778;2023-08-07T05:00:27;14.70;99.90
23130;DHT22;11734;51.046;13.778;2023-08-07T05:02:55;14.70;99.90
23130;DHT22;11734;51.046;13.778;2023-08-07T05:05:22;14.70;99.90
23130;DHT22;11734;51.046;13.778;2023-08-07T05:07:50;14.70;99.90
23130;DHT22;11734;51.046;13.778;2023-08-07T05:10:17;14.70;99.90
23130;DHT22;11734;51.046;13.778;2023-08-07T05:12:44;14.80;99.90
23130;DHT22;11734;51.046;13.778;2023-08-07T05:15:11;14.80;99.90
23130;DHT22;11734;51.046;13.778;2023-08-07T05:17:38;14.80;99.90
23130;DHT22;11734;51.046;13.778;2023-08-07T05:20:22;14.90;99.90
23130;DHT22;11734;51.046;13.778;2023-08-07T05:22:49;14.80;99.90
23130;DHT22;11734;51.046;13.778;2023-08-07T05:25:16;14.90;99.90
23130;DHT22;11734;51.046;13.778;2023-08-07T05:27:44;14.90;99.90
23130;DHT22;11734;51.046;13.778;2023-08-07T05:30:14;15.00;99.90
23130;DHT22;11734;51.046;13.778;2023-08-07T05:32:41;15.00;99.90
23130;DHT22;11734;51.046;13.778;2023-08-07T05:35:08;15.00;99.90
23130;DHT22;11734;51.046;13.778;2023-08-07T05:37:35;15.10;99.90
23130;DHT22;11734;51.046;13.778;2023-08-07T05:40:03;15.10;99.90
23130;DHT22;11734;51.046;13.778;2023-08-07T05:42:30;14.60;99.90
23130;DHT22;11734;51.046;13.778;2023-08-07T05:44:58;15.10;99.90
23130;DHT22;11734;51.046;13.778;2023-08-07T05:47:25;15.20;99.90
23130;DHT22;11734;51.046;13.778;2023-08-07T05:49:52;15.20;99.90
23130;DHT22;11734;51.046;13.778;2023-08-07T05:52:19;15.30;99.90
23130;DHT22;11734;51.046;13.778;2023-08-07T05:54:46;15.30;99.90
23130;DHT22;11734;51.046;13.778;2023-08-07T05:57:14;15.30;99.90
23130;DHT22;11734;51.046;13.778;2023-08-07T05:59:41;15.30;99.90
23130;DHT22;11734;51.046;13.778;2023-08-07T06:02:08;15.50;99.90
23130;DHT22;11734;51.046;13.778;2023-08-07T06:04:37;15.50;99.90
23130;DHT22;11734;51.046;13.778;2023-08-07T06:07:05;15.50;99.90
23130;DHT22;11734;51.046;13.778;2023-08-07T06:09:33;15.50;99.90
23130;DHT22;11734;51.046;13.778;2023-08-07T06:12:00;15.60;99.90
23130;DHT22;11734;51.046;13.778;2023-08-07T06:14:46;15.60;99.90
23130;DHT22;11734;51.046;13.778;2023-08-07T06:17:12;15.50;99.90
23130;DHT22;11734;51.046;13.778;2023-08-07T06:19:39;15.50;99.90
23130;DHT22;11734;51.046;13.778;2023-08-07T06:22:06;15.50;99.90
23130;DHT22;11734;51.046;13.778;2023-08-07T06:24:33;15.60;99.90
23130;DHT22;11734;51.046;13.778;2023-08-07T06:27:01;15.50;99.90
23130;DHT22;11734;51.046;13.778;2023-08-07T06:29:28;15.60;99.90
23130;DHT22;11734;51.046;13.778;2023-08-07T06:31:55;15.70;99.90
23130;DHT22;11734;51.046;13.778;2023-08-07T06:34:23;15.70;99.90
23130;DHT22;11734;51.046;13.778;2023-08-07T06:36:50;15.70;99.90
23130;DHT22;11734;51.046;13.778;2023-08-07T06:39:16;15.80;99.90
23130;DHT22;11734;51.046;13.778;2023-08-07T06:41:43;15.90;99.90
23130;DHT22;11734;51.046;13.778;2023-08-07T06:44:12;16.00;99.90
23130;DHT22;11734;51.046;13.778;2023-08-07T06:46:39;16.10;99.90
23130;DHT22;11734;51.046;13.778;2023-08-07T06:49:05;16.10;99.90
23130;DHT22;11734;51.046;13.778;2023-08-07T06:51:32;16.10;99.90
23130;DHT22;11734;51.046;13.778;2023-08-07T06:53:59;16.10;99.90
23130;DHT22;11734;51.046;13.778;2023-08-07T06:56:26;16.20;99.90
23130;DHT22;11734;51.046;13.778;2023-08-07T06:58:53;16.20;99.90
23130;DHT22;11734;51.046;13.778;2023-08-07T07:01:20;16.30;99.90
23130;DHT22;11734;51.046;13.778;2023-08-07T07:03:47;16.40;99.90
23130;DHT22;11734;51.046;13.778;2023-08-07T07:06:19;16.50;99.90
23130;DHT22;11734;51.046;13.778;2023-08-07T07:08:47;16.50;99.90
23130;DHT22;11734;51.046;13.778;2023-08-07T07:11:14;16.50;99.90
23130;DHT22;11734;51.046;13.778;2023-08-07T07:13:41;16.60;99.90
23130;DHT22;11734;51.046;13.778;2023-08-07T07:18:39;16.60;99.90
23130;DHT22;11734;51.046;13.778;2023-08-07T07:21:06;16.60;99.90
23130;DHT22;11734;51.046;13.778;2023-08-07T07:26:17;16.80;99.90
23130;DHT22;11734;51.046;13.778;2023-08-07T07:28:44;16.80;99.90
23130;DHT22;11734;51.046;13.778;2023-08-07T07:31:11;16.80;99.90
23130;DHT22;11734;51.046;13.778;2023-08-07T07:33:38;16.90;99.90
23130;DHT22;11734;51.046;13.778;2023-08-07T07:36:07;17.00;99.90
23130;DHT22;11734;51.046;13.778;2023-08-07T07:38:34;17.20;99.90
23130;DHT22;11734;51.046;13.778;2023-08-07T07:41:01;17.40;99.90
23130;DHT22;11734;51.046;13.778;2023-08-07T07:43:28;17.40;99.90
23130;DHT22;11734;51.046;13.778;2023-08-07T07:45:55;17.30;99.90
23130;DHT22;11734;51.046;13.778;2023-08-07T07:48:22;17.50;99.90
23130;DHT22;11734;51.046;13.778;2023-08-07T07:50:48;17.20;99.90
23130;DHT22;11734;51.046;13.778;2023-08-07T07:53:15;17.30;99.90
23130;DHT22;11734;51.046;13.778;2023-08-07T07:55:47;17.30;99.90
23130;DHT22;11734;51.046;13.778;2023-08-07T07:58:14;17.20;99.90
23130;DHT22;11734;51.046;13.778;2023-08-07T08:00:40;17.40;99.90
23130;DHT22;11734;51.046;13.778;2023-08-07T08:03:07;17.30;99.90
23130;DHT22;11734;51.046;13.778;2023-08-07T08:05:35;17.40;99.90
23130;DHT22;11734;51.046;13.778;2023-08-07T08:08:02;17.40;99.90
23130;DHT22;11734;51.046;13.778;2023-08-07T08:10:29;17.40;99.90
23130;DHT22;11734;51.046;13.778;2023-08-07T08:12:56;17.50;99.90
